Time;durP1;ratioP1;P1;durP2;ratioP2;P2;SDS_P1;SDS_P2;PMS_P1;PMS_P2;Temp;Humidity;BMP_temperature;BMP_pressure;BME280_temperature;BME280_humidity;BME280_pressure;Samples;Min_cycle;Max_cycle;Signal;HPM_P1;HPM_P2
2023/04/17 00:00:36;;;;;;;18.70;17.00;;;;;;;7.65;85.02;97961.70;106743;1276;24324;-74
2023/04/17 00:03:18;;;;;;;19.40;17.70;;;;;;;7.69;84.82;97974.86;106749;1276;22532;-74
2023/04/17 00:05:47;;;;;;;42.80;39.00;;;;;;;7.67;85.77;97971.34;106638;1276;22702;-74
2023/04/17 00:08:16;;;;;;;32.90;30.10;;;;;;;7.63;85.76;97969.07;106696;1276;25141;-75
2023/04/17 00:10:44;;;;;;;18.90;17.10;;;;;;;7.59;86.24;97969.90;106707;1276;24383;-74
2023/04/17 00:13:23;;;;;;;18.60;16.90;;;;;;;7.53;86.34;97970.15;106755;1276;22517;-74
2023/04/17 00:15:51;;;;;;;19.80;18.10;;;;;;;7.50;85.89;97969.09;106780;1276;24063;-73
2023/04/17 00:18:20;;;;;;;19.30;17.30;;;;;;;7.51;85.70;97975.20;106553;1275;22632;-74
2023/04/17 00:20:48;;;;;;;19.60;17.80;;;;;;;7.51;85.33;97976.48;106624;1276;25327;-73
2023/04/17 00:23:16;;;;;;;20.40;18.40;;;;;;;7.47;85.57;97971.83;106468;1276;23095;-75
2023/04/17 00:25:44;;;;;;;21.70;19.80;;;;;;;7.44;85.34;97973.61;106751;1276;24434;-74
2023/04/17 00:28:12;;;;;;;21.60;19.70;;;;;;;7.42;85.24;97972.88;106773;1276;22609;-75
2023/04/17 00:30:40;;;;;;;21.30;19.20;;;;;;;7.43;85.04;97972.77;106734;1276;24375;-74
2023/04/17 00:33:08;;;;;;;19.40;17.60;;;;;;;7.42;85.12;97967.95;106723;1275;23525;-75
2023/04/17 00:35:37;;;;;;;21.40;19.40;;;;;;;7.42;85.32;97970.36;106771;1272;22537;-75
2023/04/17 00:38:07;;;;;;;21.30;19.30;;;;;;;7.42;84.96;97972.56;106724;1266;24301;-74
2023/04/17 00:40:35;;;;;;;21.80;19.90;;;;;;;7.40;85.12;97970.58;106805;1276;23899;-74
2023/04/17 00:43:05;;;;;;;21.30;19.20;;;;;;;7.36;85.12;97966.85;106714;1276;23324;-74
2023/04/17 00:45:34;;;;;;;20.40;18.50;;;;;;;7.33;85.12;97970.79;106712;1276;24308;-75
2023/04/17 00:48:05;;;;;;;19.80;18.00;;;;;;;7.33;84.94;97975.30;106472;1275;25276;-74
2023/04/17 00:50:37;;;;;;;22.60;20.40;;;;;;;7.32;84.96;97984.45;106534;1259;24261;-75
2023/04/17 00:53:05;;;;;;;22.90;20.80;;;;;;;7.21;85.16;97965.90;106807;1276;22524;-75
2023/04/17 00:55:34;;;;;;;24.50;22.40;;;;;;;7.26;85.68;97978.27;106740;1276;23900;-74
2023/04/17 00:58:05;;;;;;;21.10;19.30;;;;;;;7.17;86.64;97977.44;106745;1275;24221;-75
2023/04/17 01:00:37;;;;;;;22.30;20.30;;;;;;;7.07;86.13;97981.40;106775;1276;22603;-75
2023/04/17 01:03:05;;;;;;;18.90;17.20;;;;;;;7.04;86.11;97980.59;106715;1276;22569;-75
2023/04/17 01:05:37;;;;;;;19.20;17.40;;;;;;;6.99;86.08;97978.58;106788;1276;22941;-75
2023/04/17 01:08:08;;;;;;;19.80;18.10;;;;;;;6.95;85.98;97978.86;106588;1276;22518;-74
2023/04/17 01:10:36;;;;;;;20.20;18.50;;;;;;;6.94;85.89;97983.47;106454;1264;23784;-75
2023/04/17 01:13:05;;;;;;;20.10;18.40;;;;;;;6.92;85.98;97982.79;106735;1276;24247;-75
2023/04/17 01:15:37;;;;;;;22.40;20.40;;;;;;;6.88;85.91;97985.36;106555;1276;22769;-75
2023/04/17 01:18:05;;;;;;;21.40;19.10;;;;;;;6.84;85.78;97980.82;106748;1276;24666;-75
2023/04/17 01:20:33;;;;;;;22.30;20.50;;;;;;;6.78;85.80;97977.09;106386;1276;25329;-74
2023/04/17 01:23:05;;;;;;;22.90;20.80;;;;;;;6.74;85.62;97977.73;106769;1276;22527;-75
2023/04/17 01:25:39;;;;;;;21.90;20.00;;;;;;;6.70;85.71;97976.42;106500;1276;25259;-75
2023/04/17 01:28:10;;;;;;;26.10;23.70;;;;;;;6.64;85.82;97974.17;106711;1271;24222;-76
2023/04/17 01:30:41;;;;;;;35.50;32.70;;;;;;;6.57;85.78;97970.86;106521;1276;23329;-75
2023/04/17 01:33:13;;;;;;;33.20;30.30;;;;;;;6.51;85.94;97968.02;106698;1275;22575;-75
2023/04/17 01:35:41;;;;;;;27.50;25.10;;;;;;;6.48;86.06;97964.99;106712;1276;25399;-75
2023/04/17 01:38:11;;;;;;;26.90;24.60;;;;;;;6.45;86.00;97968.09;106728;1276;25264;-74
2023/04/17 01:40:39;;;;;;;34.80;32.00;;;;;;;6.38;85.97;97964.64;106455;1276;22638;-74
2023/04/17 01:43:12;;;;;;;29.30;27.00;;;;;;;6.35;86.00;97966.45;106756;1276;25409;-75
2023/04/17 01:45:41;;;;;;;42.40;39.00;;;;;;;6.29;86.05;97968.13;106496;1276;22534;-75
2023/04/17 01:48:11;;;;;;;44.50;40.90;;;;;;;6.24;86.17;97966.03;106734;1276;22525;-75
2023/04/17 01:50:39;;;;;;;31.00;28.50;;;;;;;6.16;86.22;97962.50;106735;1276;22531;-74
2023/04/17 01:53:07;;;;;;;30.80;28.20;;;;;;;6.10;86.22;97964.85;106481;1276;22524;-75
2023/04/17 01:55:35;;;;;;;110.10;87.10;;;;;;;6.06;86.35;97961.33;106407;1276;24264;-74
2023/04/17 01:58:03;;;;;;;38.60;35.40;;;;;;;5.99;86.21;97961.65;106753;1269;22537;-73
2023/04/17 02:00:33;;;;;;;40.40;37.10;;;;;;;5.98;86.43;97965.02;106752;1276;24286;-74
2023/04/17 02:03:04;;;;;;;45.40;41.50;;;;;;;5.97;86.36;97969.45;106725;1276;22570;-74
2023/04/17 02:05:35;;;;;;;29.40;26.80;;;;;;;5.93;86.58;97968.95;106736;1276;26578;-75
2023/04/17 02:08:05;;;;;;;27.60;25.30;;;;;;;5.91;86.78;97971.63;106607;1276;22935;-75
2023/04/17 02:10:33;;;;;;;25.60;23.50;;;;;;;5.88;86.67;97975.09;106724;1276;24196;-74
2023/04/17 02:13:02;;;;;;;22.30;20.30;;;;;;;5.83;86.72;97974.50;106716;1275;25444;-75
2023/04/17 02:15:30;;;;;;;23.80;21.70;;;;;;;5.77;86.62;97976.79;106774;1276;26510;-75
2023/04/17 02:17:58;;;;;;;19.90;18.10;;;;;;;5.76;86.86;97976.80;106604;1276;22664;-76
2023/04/17 02:20:26;;;;;;;22.20;20.40;;;;;;;5.75;86.91;97974.48;106788;1276;22522;-75
2023/04/17 02:22:59;;;;;;;22.20;20.40;;;;;;;5.72;86.86;97971.81;106415;1276;22544;-76
2023/04/17 02:25:31;;;;;;;23.70;21.80;;;;;;;5.69;87.44;97968.96;106515;1276;22524;-75
2023/04/17 02:27:59;;;;;;;31.40;28.60;;;;;;;5.67;87.72;97967.79;106694;1276;22534;-76
2023/04/17 02:30:28;;;;;;;34.00;31.10;;;;;;;5.69;87.79;97970.20;106461;1276;22551;-75
2023/04/17 02:32:57;;;;;;;30.90;28.50;;;;;;;5.72;88.14;97966.62;106478;1276;22809;-73
2023/04/17 02:35:28;;;;;;;28.00;25.70;;;;;;;5.80;88.13;97968.23;106484;1277;24372;-74
2023/04/17 02:37:57;;;;;;;24.60;22.40;;;;;;;5.86;87.90;97965.25;106525;1277;25617;-73
2023/04/17 02:40:26;;;;;;;25.80;23.40;;;;;;;5.90;87.92;97969.33;106728;1277;24393;-74
2023/04/17 02:43:00;;;;;;;24.90;22.80;;;;;;;5.86;87.67;97971.08;106704;1267;22938;-74
2023/04/17 02:45:29;;;;;;;28.60;26.20;;;;;;;5.82;87.78;97968.66;106401;1277;22548;-74
2023/04/17 02:47:57;;;;;;;59.80;55.50;;;;;;;5.80;88.22;97969.25;106708;1277;23154;-74
2023/04/17 02:50:25;;;;;;;31.10;28.70;;;;;;;5.83;88.21;97972.23;106760;1277;25213;-74
2023/04/17 02:53:07;;;;;;;42.40;39.00;;;;;;;5.82;87.85;97970.21;106706;1277;25343;-75
2023/04/17 02:55:36;;;;;;;29.50;27.00;;;;;;;5.77;87.93;97967.38;106776;1277;25489;-75
2023/04/17 02:58:04;;;;;;;25.80;23.60;;;;;;;5.61;89.19;97965.52;106438;1277;28101;-75
2023/04/17 03:00:32;;;;;;;33.60;30.60;;;;;;;5.50;89.02;97970.48;106485;1277;22628;-75
2023/04/17 03:03:01;;;;;;;33.30;30.70;;;;;;;5.46;88.90;97972.60;106587;1277;25436;-76
2023/04/17 03:05:30;;;;;;;32.20;29.50;;;;;;;5.43;89.08;97973.83;106812;1277;25579;-75
2023/04/17 03:08:00;;;;;;;31.30;28.60;;;;;;;5.43;88.85;97974.95;106757;1277;22573;-76
2023/04/17 03:10:32;;;;;;;33.80;31.10;;;;;;;5.42;88.62;97984.25;106655;1277;22645;-76
2023/04/17 03:13:02;;;;;;;30.60;28.00;;;;;;;5.40;88.69;97994.45;106782;1277;26698;-75
2023/04/17 03:15:32;;;;;;;28.20;25.90;;;;;;;5.34;88.97;97993.20;106838;1277;22629;-74
2023/04/17 03:18:00;;;;;;;32.40;29.60;;;;;;;5.26;89.29;97990.77;106781;1277;22632;-74
2023/04/17 03:20:28;;;;;;;31.50;28.80;;;;;;;5.19;89.44;97989.03;106706;1277;25324;-75
2023/04/17 03:22:56;;;;;;;30.60;27.80;;;;;;;5.19;89.30;97996.94;106717;1277;22523;-76
2023/04/17 03:25:24;;;;;;;29.10;26.60;;;;;;;5.19;89.40;97995.54;106753;1277;25524;-75
2023/04/17 03:27:52;;;;;;;27.30;25.00;;;;;;;5.23;89.52;97998.09;106483;1277;22782;-77
2023/04/17 03:30:23;;;;;;;29.00;26.50;;;;;;;5.31;89.75;97998.05;106746;1277;22633;-76
2023/04/17 03:32:51;;;;;;;40.10;36.90;;;;;;;5.39;89.71;98002.31;106686;1277;24225;-75
2023/04/17 03:35:20;;;;;;;31.40;28.60;;;;;;;5.45;89.76;98002.16;106692;1276;22579;-76
2023/04/17 03:37:47;;;;;;;28.00;25.80;;;;;;;5.52;90.43;97999.03;106722;1276;22580;-76
2023/04/17 03:40:15;;;;;;;28.00;25.50;;;;;;;5.47;91.65;97999.12;106742;1276;22527;-76
2023/04/17 03:42:44;;;;;;;27.30;24.90;;;;;;;5.40;92.04;98002.48;106524;1276;22632;-75
2023/04/17 03:45:13;;;;;;;28.50;26.10;;;;;;;5.40;92.19;98003.91;106682;1276;25400;-76
2023/04/17 03:47:41;;;;;;;29.00;26.30;;;;;;;5.52;92.25;98010.63;106389;1276;22529;-75
2023/04/17 03:50:09;;;;;;;31.30;28.50;;;;;;;5.67;91.95;98018.31;106739;1276;22535;-76
2023/04/17 03:52:42;;;;;;;29.70;27.10;;;;;;;5.75;91.58;98020.74;106532;1275;22532;-75
2023/04/17 03:55:11;;;;;;;28.80;26.30;;;;;;;5.84;91.70;98019.53;106672;1276;25315;-75
2023/04/17 03:57:39;;;;;;;34.30;31.20;;;;;;;5.95;91.78;98019.36;106785;1276;23042;-75
2023/04/17 04:00:12;;;;;;;36.20;33.20;;;;;;;6.05;91.87;98019.43;106602;1276;24372;-76
2023/04/17 04:02:48;;;;;;;34.10;31.00;;;;;;;6.12;91.97;98024.59;106703;1276;22532;-76
2023/04/17 04:05:21;;;;;;;27.40;24.80;;;;;;;6.15;91.77;98027.31;106501;1276;22573;-75
2023/04/17 04:07:50;;;;;;;30.90;28.30;;;;;;;6.22;92.27;98027.63;106403;1276;22530;-76
2023/04/17 04:10:24;;;;;;;28.10;25.70;;;;;;;6.30;92.02;98024.48;106715;1276;22633;-76
2023/04/17 04:12:54;;;;;;;26.30;24.00;;;;;;;6.36;92.23;98023.25;106874;1276;22532;-75
2023/04/17 04:15:24;;;;;;;25.80;23.60;;;;;;;6.43;92.11;98020.35;106750;1276;22778;-76
2023/04/17 04:17:55;;;;;;;28.30;24.30;;;;;;;6.50;92.30;98023.92;106792;1276;24474;-75
2023/04/17 04:20:23;;;;;;;25.60;23.40;;;;;;;6.58;92.66;98025.16;106480;1276;25504;-77
2023/04/17 04:22:56;;;;;;;27.40;25.10;;;;;;;6.67;92.56;98027.81;106718;1276;24437;-75
2023/04/17 04:25:25;;;;;;;28.60;26.20;;;;;;;6.75;92.35;98023.64;106407;1276;24092;-75
2023/04/17 04:28:06;;;;;;;28.80;26.30;;;;;;;6.80;92.52;98022.40;106470;1276;22524;-75
2023/04/17 04:30:37;;;;;;;28.00;25.40;;;;;;;6.86;93.22;98025.27;106805;1276;22778;-75
2023/04/17 04:33:12;;;;;;;34.60;31.70;;;;;;;6.97;93.10;98032.27;106802;1276;25560;-76
2023/04/17 04:35:40;;;;;;;30.30;27.60;;;;;;;7.10;93.01;98036.47;106793;1276;22540;-76
2023/04/17 04:38:12;;;;;;;29.90;27.50;;;;;;;7.22;92.73;98040.56;106728;1276;23114;-76
2023/04/17 04:40:48;;;;;;;36.80;33.20;;;;;;;7.31;92.63;98038.98;106639;1276;24376;-76
2023/04/17 04:43:17;;;;;;;35.50;32.10;;;;;;;7.34;92.68;98044.27;106759;1276;22525;-76
2023/04/17 04:45:51;;;;;;;35.60;32.40;;;;;;;7.38;92.80;98045.71;106759;1253;22602;-77
2023/04/17 04:48:19;;;;;;;38.80;35.30;;;;;;;7.42;92.81;98040.59;106766;1276;24371;-78
2023/04/17 04:50:47;;;;;;;56.80;50.80;;;;;;;7.48;92.93;98047.70;106610;1276;22540;-75
2023/04/17 04:53:16;;;;;;;32.70;29.90;;;;;;;7.58;93.13;98044.98;106713;1276;22637;-75
2023/04/17 04:55:52;;;;;;;28.50;25.50;;;;;;;7.68;93.04;98043.53;106737;1276;25385;-75
2023/04/17 04:58:21;;;;;;;29.70;27.00;;;;;;;7.76;92.95;98049.23;106829;1276;22669;-74
2023/04/17 05:00:49;;;;;;;27.40;24.70;;;;;;;7.84;93.30;98047.42;106840;1276;24408;-75
2023/04/17 05:03:23;;;;;;;30.70;28.10;;;;;;;7.91;93.28;98049.41;106721;1276;24228;-74
2023/04/17 05:05:51;;;;;;;33.90;31.00;;;;;;;7.98;93.17;98050.55;106702;1276;22528;-75
2023/04/17 05:08:21;;;;;;;30.40;27.50;;;;;;;8.05;93.26;98053.36;106440;1276;22933;-74
2023/04/17 05:10:58;;;;;;;29.00;26.50;;;;;;;8.15;93.77;98055.88;106789;1276;22599;-75
2023/04/17 05:13:28;;;;;;;30.30;27.50;;;;;;;8.27;94.02;98050.05;106774;1276;23132;-73
2023/04/17 05:15:57;;;;;;;29.30;26.60;;;;;;;8.38;93.97;98053.27;106558;1276;22525;-74
2023/04/17 05:18:29;;;;;;;28.90;26.30;;;;;;;8.51;93.79;98053.65;106763;1276;24373;-74
2023/04/17 05:20:58;;;;;;;30.70;27.80;;;;;;;8.62;94.26;98050.54;106698;1276;25343;-73
2023/04/17 05:23:29;;;;;;;30.90;28.30;;;;;;;8.66;93.62;98056.41;106748;1276;22524;-73
2023/04/17 05:25:57;;;;;;;29.90;27.30;;;;;;;8.68;93.82;98050.55;106692;1276;24345;-73
2023/04/17 05:28:26;;;;;;;29.90;27.40;;;;;;;8.72;94.04;98047.03;106739;1276;23899;-73
2023/04/17 05:30:56;;;;;;;29.60;26.70;;;;;;;8.76;94.07;98045.00;106738;1276;22525;-73
2023/04/17 05:33:30;;;;;;;26.60;24.30;;;;;;;8.83;93.74;98043.02;106717;1276;24288;-74
2023/04/17 05:36:01;;;;;;;27.30;24.80;;;;;;;8.92;93.97;98043.98;106729;1276;22533;-74
2023/04/17 05:38:29;;;;;;;27.90;25.20;;;;;;;9.00;93.99;98042.84;106373;1276;24371;-74
2023/04/17 05:40:57;;;;;;;26.00;23.60;;;;;;;9.09;94.12;98039.13;106403;1276;22846;-74
2023/04/17 05:43:25;;;;;;;26.10;23.70;;;;;;;9.18;93.76;98040.12;106377;1276;25326;-74
2023/04/17 05:45:54;;;;;;;27.20;24.70;;;;;;;9.24;94.15;98050.31;106740;1276;22529;-74
2023/04/17 05:48:22;;;;;;;28.10;25.50;;;;;;;9.29;93.75;98050.10;106275;1276;178939;-74
2023/04/17 05:50:51;;;;;;;27.10;24.70;;;;;;;9.32;94.17;98053.77;106712;1276;23066;-74
2023/04/17 05:53:19;;;;;;;27.40;24.90;;;;;;;9.30;94.39;98060.47;106390;1276;22635;-74
2023/04/17 05:55:54;;;;;;;27.70;25.00;;;;;;;9.26;94.28;98059.49;106677;1276;24286;-74
2023/04/17 05:58:22;;;;;;;28.00;25.60;;;;;;;9.25;94.88;98061.34;106627;1276;22521;-74
2023/04/17 06:00:55;;;;;;;29.90;27.20;;;;;;;9.17;94.40;98061.46;106699;1276;22630;-74
2023/04/17 06:03:25;;;;;;;30.50;27.80;;;;;;;9.17;94.64;98058.41;106497;1276;22789;-73
2023/04/17 06:06:07;;;;;;;29.50;26.70;;;;;;;9.16;94.50;98060.36;106714;1268;22630;-73
2023/04/17 06:08:35;;;;;;;29.20;26.70;;;;;;;9.16;94.51;98055.78;106612;1276;22534;-75
2023/04/17 06:11:04;;;;;;;29.80;27.20;;;;;;;9.19;94.66;98061.56;106731;1276;24248;-73
2023/04/17 06:13:33;;;;;;;31.60;28.70;;;;;;;9.23;94.79;98061.95;106739;1276;22626;-73
2023/04/17 06:16:01;;;;;;;33.10;30.20;;;;;;;9.26;94.85;98062.23;106692;1255;22529;-74
2023/04/17 06:18:29;;;;;;;29.70;26.90;;;;;;;9.23;94.92;98066.41;106723;1276;22723;-74
2023/04/17 06:20:57;;;;;;;29.40;26.70;;;;;;;9.22;94.92;98068.84;106419;1276;25503;-74
2023/04/17 06:23:28;;;;;;;28.40;25.80;;;;;;;9.23;95.13;98069.26;106762;1276;24228;-74
2023/04/17 06:25:56;;;;;;;31.20;28.30;;;;;;;9.27;95.41;98071.58;106715;1276;22543;-74
2023/04/17 06:28:24;;;;;;;28.70;26.20;;;;;;;9.33;95.39;98072.38;106801;1276;22545;-76
2023/04/17 06:30:53;;;;;;;30.40;27.70;;;;;;;9.42;95.12;98071.52;106710;1276;23151;-74
2023/04/17 06:33:22;;;;;;;30.30;27.60;;;;;;;9.48;94.82;98070.69;106493;1276;22631;-74
2023/04/17 06:35:54;;;;;;;32.20;29.30;;;;;;;9.54;95.11;98072.94;106496;1276;22565;-75
2023/04/17 06:38:28;;;;;;;;;;;;;;;9.62;95.12;98073.00;106760;1276;24345;-75
2023/04/17 06:40:57;;;;;;;30.30;27.40;;;;;;;9.69;95.13;98072.50;106490;1276;22790;-74
2023/04/17 06:43:25;;;;;;;29.60;26.70;;;;;;;9.77;95.06;98077.55;106779;1276;22516;-74
2023/04/17 06:45:54;;;;;;;30.00;27.30;;;;;;;9.85;94.82;98076.21;106883;1275;22527;-74
2023/04/17 06:48:22;;;;;;;30.60;27.90;;;;;;;9.96;95.24;98079.19;106769;1275;23157;-73
2023/04/17 06:50:49;;;;;;;29.10;26.40;;;;;;;10.08;95.35;98080.05;106759;1276;25316;-74
2023/04/17 06:53:17;;;;;;;30.30;27.60;;;;;;;10.15;94.97;98079.84;106539;1276;25710;-73
2023/04/17 06:55:45;;;;;;;28.50;26.00;;;;;;;10.21;95.10;98081.38;106758;1276;22785;-73
2023/04/17 06:58:13;;;;;;;27.50;24.90;;;;;;;10.30;94.99;98083.98;106776;1276;22603;-73
2023/04/17 07:00:41;;;;;;;29.00;26.40;;;;;;;10.39;94.89;98092.20;106828;1276;24342;-73
2023/04/17 07:03:10;;;;;;;25.10;22.90;;;;;;;10.45;94.80;98092.62;106765;1276;25698;-73
2023/04/17 07:05:38;;;;;;;25.50;23.20;;;;;;;10.49;94.71;98094.46;106849;1276;24330;-73
2023/04/17 07:08:06;;;;;;;26.50;24.10;;;;;;;10.52;94.63;98092.59;106786;1275;25467;-75
2023/04/17 07:10:34;;;;;;;26.20;23.80;;;;;;;10.53;94.51;98094.23;106824;1276;24251;-75
2023/04/17 07:13:02;;;;;;;24.10;21.90;;;;;;;10.55;94.40;98096.13;106813;1276;23731;-74
2023/04/17 07:15:30;;;;;;;24.10;21.90;;;;;;;10.58;94.58;98095.89;106779;1276;23292;-74
2023/04/17 07:17:58;;;;;;;21.00;18.70;;;;;;;10.63;94.29;98098.77;106751;1276;24224;-74
2023/04/17 07:20:26;;;;;;;19.20;17.40;;;;;;;10.72;94.32;98095.29;106718;1276;22671;-74
2023/04/17 07:22:55;;;;;;;19.00;17.40;;;;;;;10.81;94.34;98096.37;106727;1276;22521;-75
2023/04/17 07:25:23;;;;;;;17.20;15.60;;;;;;;10.84;93.75;98100.21;106725;1276;22647;-73
2023/04/17 07:27:54;;;;;;;17.70;16.00;;;;;;;10.85;93.68;98102.29;106728;1276;25270;-73
2023/04/17 07:30:22;;;;;;;18.70;17.00;;;;;;;10.85;93.52;98102.79;106762;1276;25366;-73
2023/04/17 07:32:51;;;;;;;17.80;16.00;;;;;;;10.86;93.58;98101.20;106723;1276;22628;-74
2023/04/17 07:35:19;;;;;;;17.80;15.90;;;;;;;10.89;93.45;98103.84;106748;1276;24377;-76
2023/04/17 07:37:48;;;;;;;18.30;16.50;;;;;;;10.91;92.32;98104.50;106764;1276;25002;-75
2023/04/17 07:40:16;;;;;;;19.80;18.00;;;;;;;10.86;91.78;98105.19;106702;1276;22858;-77
2023/04/17 07:42:44;;;;;;;20.10;18.30;;;;;;;10.79;92.04;98099.27;106463;1276;25451;-75
2023/04/17 07:45:12;;;;;;;21.50;19.40;;;;;;;10.73;92.16;98098.50;106725;1276;22590;-74
2023/04/17 07:47:40;;;;;;;21.60;19.60;;;;;;;10.74;92.32;98099.35;106658;1276;24400;-75
2023/04/17 07:50:08;;;;;;;21.40;19.40;;;;;;;10.79;92.74;98107.47;106692;1276;25240;-74
2023/04/17 07:52:36;;;;;;;27.90;25.40;;;;;;;10.90;92.80;98108.30;106691;1276;22739;-74
2023/04/17 07:55:06;;;;;;;24.20;22.00;;;;;;;11.04;93.06;98109.09;106715;1276;24235;-74
2023/04/17 07:57:34;;;;;;;22.00;19.70;;;;;;;11.22;93.25;98108.91;106670;1255;25312;-74
2023/04/17 08:00:03;;;;;;;21.50;19.50;;;;;;;11.40;93.35;98108.71;106689;1276;25313;-74
2023/04/17 08:02:40;;;;;;;21.10;19.10;;;;;;;11.63;93.42;98107.60;106693;1276;22521;-74
2023/04/17 08:05:09;;;;;;;19.30;17.30;;;;;;;11.87;93.78;98108.09;106731;1276;22527;-74
2023/04/17 08:07:37;;;;;;;16.80;15.10;;;;;;;12.19;93.53;98106.21;106706;1276;22786;-74
2023/04/17 08:10:06;;;;;;;18.40;16.70;;;;;;;12.50;92.70;98109.38;106700;1276;22541;-77
2023/04/17 08:12:34;;;;;;;20.00;18.20;;;;;;;12.68;92.32;98109.48;106756;1276;25440;-74
2023/04/17 08:15:03;;;;;;;17.60;15.90;;;;;;;12.72;90.86;98104.73;106778;1276;22657;-73
2023/04/17 08:17:32;;;;;;;19.00;17.30;;;;;;;12.75;91.01;98108.28;106772;1276;22493;-74
2023/04/17 08:20:18;;;;;;;16.30;14.70;;;;;;;12.77;90.94;98107.80;106772;1276;25423;-73
2023/04/17 08:22:46;;;;;;;15.50;14.00;;;;;;;12.79;90.95;98111.92;106800;1276;25316;-73
2023/04/17 08:25:15;;;;;;;16.40;14.90;;;;;;;12.85;90.77;98110.42;106799;1276;22802;-74
2023/04/17 08:27:43;;;;;;;17.00;15.30;;;;;;;12.95;91.19;98105.30;106831;1276;24248;-74
2023/04/17 08:30:12;;;;;;;17.80;16.00;;;;;;;13.11;91.40;98104.56;106757;1276;23902;-74
2023/04/17 08:32:45;;;;;;;19.40;17.60;;;;;;;13.26;89.99;98103.34;106685;1276;25498;-74
2023/04/17 08:35:14;;;;;;;17.40;15.80;;;;;;;13.37;89.89;98103.23;106759;1276;25591;-73
2023/04/17 08:37:45;;;;;;;13.70;12.40;;;;;;;13.50;89.37;98106.22;106749;1276;22640;-73
2023/04/17 08:40:15;;;;;;;13.90;12.50;;;;;;;13.57;88.79;98099.05;106730;1276;24306;-74
2023/04/17 08:42:46;;;;;;;15.20;13.60;;;;;;;13.65;88.31;98096.72;106607;1276;22528;-73
2023/04/17 08:45:15;;;;;;;16.30;14.70;;;;;;;13.69;87.59;98095.81;106673;1276;24214;-73
2023/04/17 08:47:43;;;;;;;15.90;13.50;;;;;;;13.76;87.08;98096.16;106706;1276;22595;-73
2023/04/17 08:50:15;;;;;;;17.20;15.50;;;;;;;13.78;85.68;98095.16;106772;1276;22539;-73
2023/04/17 08:52:52;;;;;;;17.10;15.60;;;;;;;13.71;84.89;98099.24;106592;1276;22606;-73
2023/04/17 08:55:23;;;;;;;15.50;14.10;;;;;;;13.63;84.70;98097.09;106765;1276;25441;-73
2023/04/17 08:57:56;;;;;;;12.60;11.40;;;;;;;13.58;84.22;98102.10;106791;1276;22530;-73
2023/04/17 09:00:26;;;;;;;14.40;13.10;;;;;;;13.53;82.81;98102.26;106729;1276;25327;-74
2023/04/17 09:02:56;;;;;;;15.40;12.90;;;;;;;13.49;81.31;98105.99;106755;1276;24194;-74
2023/04/17 09:05:29;;;;;;;14.00;12.60;;;;;;;13.52;83.10;98105.36;106698;1276;22759;-74
2023/04/17 09:08:15;;;;;;;12.60;11.50;;;;;;;13.63;82.54;98106.31;106688;1276;24226;-73
2023/04/17 09:10:43;;;;;;;14.20;12.80;;;;;;;13.71;81.64;98106.42;106700;1276;22532;-75
2023/04/17 09:13:15;;;;;;;13.90;12.70;;;;;;;13.77;82.57;98102.27;106713;1276;22530;-74
2023/04/17 09:15:45;;;;;;;13.40;12.10;;;;;;;13.85;82.27;98102.39;106722;1276;22710;-75
2023/04/17 09:18:23;;;;;;;14.60;13.20;;;;;;;13.86;81.13;98105.67;107006;1276;22745;-74
2023/04/17 09:20:52;;;;;;;16.70;14.90;;;;;;;13.75;78.70;98111.88;106881;1276;25424;-76
2023/04/17 09:23:22;;;;;;;13.70;12.50;;;;;;;13.59;79.07;98109.82;106715;1276;25400;-74
2023/04/17 09:26:06;;;;;;;16.50;14.90;;;;;;;13.42;79.14;98110.00;106865;1276;24235;-74
2023/04/17 09:28:34;;;;;;;;;;;;;;;13.34;79.63;98107.42;106882;1276;24197;-73
2023/04/17 09:31:06;;;;;;;13.90;12.50;;;;;;;13.38;80.28;98108.12;106780;1276;24215;-74
2023/04/17 09:33:34;;;;;;;12.60;11.50;;;;;;;13.50;79.73;98109.21;106838;1276;22703;-74
2023/04/17 09:36:20;;;;;;;13.90;12.40;;;;;;;13.48;79.58;98106.73;106741;1276;22763;-73
2023/04/17 09:38:50;;;;;;;13.80;12.50;;;;;;;13.47;79.07;98111.84;106828;1276;22634;-75
2023/04/17 09:41:30;;;;;;;15.30;13.90;;;;;;;13.37;78.97;98113.34;106744;1276;25460;-73
2023/04/17 09:44:00;;;;;;;14.90;13.50;;;;;;;13.24;78.66;98117.73;106610;1276;22583;-74
2023/04/17 09:46:40;;;;;;;19.20;17.30;;;;;;;13.06;79.09;98120.55;106699;1270;24384;-73
2023/04/17 09:49:17;;;;;;;18.10;15.90;;;;;;;12.94;79.02;98120.85;106750;1276;25335;-74
2023/04/17 09:51:46;;;;;;;17.00;15.40;;;;;;;12.84;79.27;98119.42;106720;1276;23912;-73
2023/04/17 09:54:15;;;;;;;17.30;15.70;;;;;;;12.75;79.74;98119.48;106710;1275;23002;-73
2023/04/17 09:56:43;;;;;;;18.40;16.80;;;;;;;12.67;79.93;98119.98;106723;1276;25403;-73
2023/04/17 09:59:12;;;;;;;20.50;18.70;;;;;;;12.56;79.68;98121.13;106694;1255;22543;-74
2023/04/17 10:01:42;;;;;;;20.40;18.50;;;;;;;12.44;80.19;98129.93;106721;1255;22543;-74
2023/04/17 10:04:10;;;;;;;20.90;19.00;;;;;;;12.34;79.83;98122.31;106721;1276;24216;-74
2023/04/17 10:06:40;;;;;;;21.20;19.40;;;;;;;12.26;80.17;98124.05;106659;1276;25297;-74
2023/04/17 10:09:08;;;;;;;21.20;19.30;;;;;;;12.18;80.74;98124.83;106678;1276;22581;-74
2023/04/17 10:11:40;;;;;;;23.70;21.60;;;;;;;12.11;80.74;98125.90;106743;1276;24241;-76
2023/04/17 10:14:18;;;;;;;26.30;24.00;;;;;;;12.04;80.85;98128.80;106771;1276;22807;-74
2023/04/17 10:16:47;;;;;;;24.60;22.60;;;;;;;11.99;80.96;98123.73;106692;1276;22639;-75
2023/04/17 10:19:32;;;;;;;24.20;22.10;;;;;;;11.96;81.08;98125.23;106753;1276;25268;-73
2023/04/17 10:22:18;;;;;;;23.40;21.30;;;;;;;11.91;81.20;98127.52;106668;1276;22534;-73
2023/04/17 10:24:53;;;;;;;23.90;21.90;;;;;;;11.83;81.83;98123.21;106700;1274;24338;-73
2023/04/17 10:27:27;;;;;;;32.00;29.30;;;;;;;11.72;81.92;98126.77;106710;1276;25374;-73
2023/04/17 10:29:57;;;;;;;26.90;24.60;;;;;;;11.66;82.29;98121.93;106683;1276;24218;-74
2023/04/17 10:32:28;;;;;;;25.00;22.90;;;;;;;11.62;82.34;98123.69;106794;1276;22637;-74
2023/04/17 10:35:19;;;;;;;23.20;21.20;;;;;;;11.66;82.53;98124.13;106754;1276;24194;-74
2023/04/17 10:37:47;;;;;;;23.30;21.30;;;;;;;11.76;83.01;98118.59;106786;1253;25373;-75
2023/04/17 10:40:21;;;;;;;22.20;20.20;;;;;;;11.92;83.29;98121.42;106724;1276;22545;-74
2023/04/17 10:43:25;;;;;;;23.20;21.10;;;;;;;12.03;83.39;98120.87;106769;1276;22627;-74
2023/04/17 10:46:13;;;;;;;23.40;21.30;;;;;;;12.20;83.71;98118.15;106678;1276;24220;-75
2023/04/17 10:48:52;;;;;;;22.50;20.40;;;;;;;12.32;83.59;98122.73;106422;1274;23251;-72
2023/04/17 10:51:20;;;;;;;21.60;19.60;;;;;;;12.43;83.45;98114.38;106756;1276;22543;-74
2023/04/17 10:53:58;;;;;;;20.30;18.50;;;;;;;12.54;83.44;98112.67;106552;1276;22536;-74
2023/04/17 10:56:44;;;;;;;20.20;18.40;;;;;;;12.66;83.49;98112.71;106684;1276;24216;-74
2023/04/17 10:59:17;;;;;;;20.70;18.90;;;;;;;12.65;83.24;98113.50;106720;1276;22531;-74
2023/04/17 11:01:49;;;;;;;22.70;20.60;;;;;;;12.64;83.44;98109.68;106709;1276;22547;-74
2023/04/17 11:04:28;;;;;;;20.30;18.40;;;;;;;12.69;83.40;98109.83;106690;1276;24193;-74
2023/04/17 11:06:57;;;;;;;20.70;18.80;;;;;;;12.69;83.02;98110.38;106658;1276;24386;-74
2023/04/17 11:09:27;;;;;;;20.10;18.30;;;;;;;12.73;83.29;98108.22;106673;1276;22534;-74
2023/04/17 11:11:58;;;;;;;17.90;16.20;;;;;;;12.84;83.18;98109.59;106658;1276;22538;-74
2023/04/17 11:14:26;;;;;;;17.90;16.20;;;;;;;12.94;82.90;98106.95;106654;1276;24219;-73
2023/04/17 11:16:54;;;;;;;18.80;17.20;;;;;;;13.03;82.92;98111.65;106713;1276;25328;-73
2023/04/17 11:19:24;;;;;;;16.70;15.10;;;;;;;13.12;82.80;98110.66;106731;1264;24226;-74
2023/04/17 11:22:00;;;;;;;17.30;15.60;;;;;;;13.13;81.29;98106.30;106494;1276;23951;-73
2023/04/17 11:24:30;;;;;;;17.40;15.30;;;;;;;13.06;81.38;98106.65;106509;1276;22541;-73
2023/04/17 11:27:05;;;;;;;17.30;14.80;;;;;;;12.97;81.16;98105.64;106722;1276;22490;-74
2023/04/17 11:29:33;;;;;;;15.00;13.70;;;;;;;12.89;81.19;98113.56;106694;1276;22636;-75